| time (UTC) | temp F | wind direction | speed MPH | gust MPH | rain 1hr in | rain 24hr in | rain mn in | humidity % | barometer mb |
| 20260902143306 | 53 | 70 | 5.0 | 0.0 | 0.00 | 0.00 | 0.00 | 87 | 1003.0 |
| 20260902140306 | 53 | 0 | 2.0 | 0.0 | 0.00 | 0.00 | 0.00 | 93 | 1003.0 |
| 20260902133306 | 55 | 100 | 3.0 | 0.0 | 0.00 | 0.00 | 0.00 | 87 | 1003.0 |
| 20260902130307 | 57 | 210 | 3.0 | 0.0 | 0.00 | 0.00 | 0.00 | 76 | 1003.0 |
| 20260902123308 | 55 | 240 | 5.0 | 0.0 | 0.00 | 0.00 | 0.00 | 76 | 1003.0 |
| 20260902120306 | 55 | 210 | 5.0 | 0.0 | 0.00 | 0.00 | 0.00 | 76 | 1003.0 |
| 20260902113307 | 57 | 240 | 6.0 | 0.0 | 0.00 | 0.00 | 0.00 | 76 | 1003.0 |
| 20260902110308 | 55 | 240 | 6.0 | 0.0 | 0.00 | 0.00 | 0.00 | 76 | 1003.0 |
| 20260902103307 | 55 | 0 | 2.0 | 0.0 | 0.00 | 0.00 | 0.00 | 71 | 1003.0 |
| 20260902100308 | 55 | 0 | 1.0 | 0.0 | 0.00 | 0.00 | 0.00 | 81 | 1003.0 |
| 20260902093308 | 55 | 0 | 2.0 | 0.0 | 0.00 | 0.00 | 0.00 | 81 | 1003.0 |
| 20260902090307 | 55 | 0 | 2.0 | 0.0 | 0.00 | 0.00 | 0.00 | 81 | 1003.0 |
| 20260902083307 | 55 | 0 | 2.0 | 0.0 | 0.00 | 0.00 | 0.00 | 87 | 1002.0 |
| 20260902080308 | 55 | 0 | 0.0 | 0.0 | 0.00 | 0.00 | 0.00 | 81 | 1002.0 |
| 20260902073307 | 55 | 0 | 0.0 | 0.0 | 0.00 | 0.00 | 0.00 | 76 | 1002.0 |
| 20260902070308 | 53 | 0 | 0.0 | 0.0 | 0.00 | 0.00 | 0.00 | 87 | 1002.0 |
| 20260902063307 | 50 | 0 | 0.0 | 0.0 | 0.00 | 0.00 | 0.00 | 93 | 1002.0 |
| 20260902060308 | 50 | 0 | 0.0 | 0.0 | 0.00 | 0.00 | 0.00 | 93 | 1002.0 |
| 20260902053307 | 48 | 0 | 0.0 | 0.0 | 0.00 | 0.00 | 0.00 | 93 | 1002.0 |
| 20260902050307 | 48 | 0 | 1.0 | 0.0 | 0.00 | 0.00 | 0.00 | 93 | 1002.0 |
| 20260902043307 | 48 | 0 | 1.0 | 0.0 | 0.00 | 0.00 | 0.00 | 93 | 1002.0 |
| 20260902040307 | 46 | 0 | 2.0 | 0.0 | 0.00 | 0.00 | 0.00 | 93 | 1003.0 |
| 20260902033307 | 48 | 0 | 0.0 | 0.0 | 0.00 | 0.00 | 0.00 | 93 | 1003.0 |
| 20260902030307 | 48 | 40 | 5.0 | 0.0 | 0.00 | 0.00 | 0.00 | 93 | 1003.0 |
| 20260902023307 | 48 | 50 | 3.0 | 0.0 | 0.00 | 0.00 | 0.00 | 93 | 1004.0 |
| 20260902020307 | 48 | 0 | 0.0 | 0.0 | 0.00 | 0.00 | 0.00 | 93 | 1004.0 |
| 20260902013307 | 46 | 80 | 5.0 | 0.0 | 0.00 | 0.00 | 0.00 | 93 | 1004.0 |
| 20260902010307 | 48 | 60 | 3.0 | 0.0 | 0.00 | 0.00 | 0.00 | 93 | 1005.0 |
| 20260902003307 | 48 | 50 | 5.0 | 0.0 | 0.00 | 0.00 | 0.00 | 93 | 1005.0 |
| 20260902000307 | 48 | 80 | 5.0 | 0.0 | 0.00 | 0.00 | 0.00 | 93 | 1005.0 |
| 20260901233308 | 48 | 60 | 5.0 | 0.0 | 0.00 | 0.00 | 0.00 | 93 | 1005.0 |
| 20260901230307 | 48 | 50 | 5.0 | 0.0 | 0.00 | 0.00 | 0.00 | 93 | 1006.0 |
| 20260901223306 | 50 | 0 | 2.0 | 0.0 | 0.00 | 0.00 | 0.00 | 93 | 1006.0 |
| 20260901220307 | 50 | 0 | 2.0 | 0.0 | 0.00 | 0.00 | 0.00 | 93 | 1006.0 |
| 20260901213306 | 50 | 70 | 3.0 | 0.0 | 0.00 | 0.00 | 0.00 | 93 | 1006.0 |
| 20260901210307 | 50 | 80 | 5.0 | 0.0 | 0.00 | 0.00 | 0.00 | 93 | 1006.0 |
| 20260901203307 | 50 | 0 | 2.0 | 0.0 | 0.00 | 0.00 | 0.00 | 93 | 1007.0 |
| 20260901200306 | 50 | 0 | 1.0 | 0.0 | 0.00 | 0.00 | 0.00 | 87 | 1007.0 |
| 20260901193306 | 50 | 0 | 1.0 | 0.0 | 0.00 | 0.00 | 0.00 | 87 | 1007.0 |
| 20260901190306 | 48 | 70 | 2.0 | 0.0 | 0.00 | 0.00 | 0.00 | 93 | 1007.0 |
| 20260901183308 | 50 | 0 | 0.0 | 0.0 | 0.00 | 0.00 | 0.00 | 87 | 1008.0 |
| 20260901180308 | 51 | 80 | 5.0 | 0.0 | 0.00 | 0.00 | 0.00 | 87 | 1008.0 |
| 20260901173307 | 51 | 80 | 5.0 | 0.0 | 0.00 | 0.00 | 0.00 | 87 | 1008.0 |
| 20260901170307 | 53 | 80 | 5.0 | 0.0 | 0.00 | 0.00 | 0.00 | 87 | 1008.0 |
| 20260901163308 | 53 | 80 | 6.0 | 0.0 | 0.00 | 0.00 | 0.00 | 87 | 1008.0 |
| 20260901160308 | 55 | 0 | 2.0 | 0.0 | 0.00 | 0.00 | 0.00 | 81 | 1008.0 |
| 20260901153307 | 57 | 310 | 3.0 | 0.0 | 0.00 | 0.00 | 0.00 | 71 | 1008.0 |
| 20260901150308 | 55 | 310 | 5.0 | 0.0 | 0.00 | 0.00 | 0.00 | 76 | 1008.0 |